sensor_id;sensor_type;location;lat;lon;timestamp;P1;durP1;ratioP1;P2;durP2;ratioP2
74614;SDS011;63121;51.458;-0.110;2023-04-15T00:01:19;9.55;;;3.08;;
74614;SDS011;63121;51.458;-0.110;2023-04-15T00:03:45;6.63;;;1.90;;
74614;SDS011;63121;51.458;-0.110;2023-04-15T00:06:11;7.22;;;2.70;;
74614;SDS011;63121;51.458;-0.110;2023-04-15T00:08:37;7.55;;;2.80;;
74614;SDS011;63121;51.458;-0.110;2023-04-15T00:11:03;7.35;;;2.67;;
74614;SDS011;63121;51.458;-0.110;2023-04-15T00:13:30;7.57;;;2.60;;
74614;SDS011;63121;51.458;-0.110;2023-04-15T00:18:22;6.90;;;2.40;;
74614;SDS011;63121;51.458;-0.110;2023-04-15T00:20:48;7.75;;;2.63;;
74614;SDS011;63121;51.458;-0.110;2023-04-15T00:23:14;7.47;;;2.20;;
74614;SDS011;63121;51.458;-0.110;2023-04-15T00:25:39;6.53;;;2.08;;
74614;SDS011;63121;51.458;-0.110;2023-04-15T00:28:05;6.30;;;2.30;;
74614;SDS011;63121;51.458;-0.110;2023-04-15T00:30:30;7.10;;;2.42;;
74614;SDS011;63121;51.458;-0.110;2023-04-15T00:33:07;7.77;;;2.53;;
74614;SDS011;63121;51.458;-0.110;2023-04-15T00:35:33;7.65;;;2.58;;
74614;SDS011;63121;51.458;-0.110;2023-04-15T00:37:58;8.30;;;2.30;;
74614;SDS011;63121;51.458;-0.110;2023-04-15T00:40:24;6.13;;;2.22;;
74614;SDS011;63121;51.458;-0.110;2023-04-15T00:42:50;6.68;;;2.40;;
74614;SDS011;63121;51.458;-0.110;2023-04-15T00:45:16;6.38;;;2.00;;
74614;SDS011;63121;51.458;-0.110;2023-04-15T00:47:42;7.97;;;2.47;;
74614;SDS011;63121;51.458;-0.110;2023-04-15T00:50:07;7.82;;;2.47;;
74614;SDS011;63121;51.458;-0.110;2023-04-15T00:52:34;6.38;;;2.10;;
74614;SDS011;63121;51.458;-0.110;2023-04-15T00:54:59;7.00;;;2.35;;
74614;SDS011;63121;51.458;-0.110;2023-04-15T00:57:25;6.38;;;2.10;;
74614;SDS011;63121;51.458;-0.110;2023-04-15T00:59:52;6.93;;;2.05;;
74614;SDS011;63121;51.458;-0.110;2023-04-15T01:02:17;6.90;;;1.95;;
74614;SDS011;63121;51.458;-0.110;2023-04-15T01:04:43;6.03;;;2.00;;
74614;SDS011;63121;51.458;-0.110;2023-04-15T01:07:09;7.37;;;2.43;;
74614;SDS011;63121;51.458;-0.110;2023-04-15T01:09:34;6.77;;;2.43;;
74614;SDS011;63121;51.458;-0.110;2023-04-15T01:11:59;7.63;;;2.38;;
74614;SDS011;63121;51.458;-0.110;2023-04-15T01:14:26;7.80;;;2.42;;
74614;SDS011;63121;51.458;-0.110;2023-04-15T01:16:53;8.07;;;2.97;;
74614;SDS011;63121;51.458;-0.110;2023-04-15T01:19:18;6.57;;;2.55;;
74614;SDS011;63121;51.458;-0.110;2023-04-15T01:21:44;9.18;;;3.20;;
74614;SDS011;63121;51.458;-0.110;2023-04-15T01:24:09;7.50;;;2.50;;
74614;SDS011;63121;51.458;-0.110;2023-04-15T01:26:39;10.68;;;2.72;;
74614;SDS011;63121;51.458;-0.110;2023-04-15T01:29:04;7.72;;;2.88;;
74614;SDS011;63121;51.458;-0.110;2023-04-15T01:31:30;6.38;;;1.88;;
74614;SDS011;63121;51.458;-0.110;2023-04-15T01:33:57;8.25;;;2.22;;
74614;SDS011;63121;51.458;-0.110;2023-04-15T01:36:22;4.40;;;1.55;;
74614;SDS011;63121;51.458;-0.110;2023-04-15T01:38:48;5.63;;;1.80;;
74614;SDS011;63121;51.458;-0.110;2023-04-15T01:41:13;6.97;;;2.45;;
74614;SDS011;63121;51.458;-0.110;2023-04-15T01:43:38;4.53;;;1.70;;
74614;SDS011;63121;51.458;-0.110;2023-04-15T01:46:04;4.67;;;1.60;;
74614;SDS011;63121;51.458;-0.110;2023-04-15T01:48:30;8.23;;;2.20;;
74614;SDS011;63121;51.458;-0.110;2023-04-15T01:50:56;5.28;;;1.92;;
74614;SDS011;63121;51.458;-0.110;2023-04-15T01:53:25;4.95;;;1.90;;
74614;SDS011;63121;51.458;-0.110;2023-04-15T01:55:50;4.53;;;1.70;;
74614;SDS011;63121;51.458;-0.110;2023-04-15T01:58:17;4.55;;;1.65;;
74614;SDS011;63121;51.458;-0.110;2023-04-15T02:00:43;4.75;;;1.75;;
74614;SDS011;63121;51.458;-0.110;2023-04-15T02:03:08;5.30;;;1.80;;
74614;SDS011;63121;51.458;-0.110;2023-04-15T02:05:34;6.50;;;1.90;;
74614;SDS011;63121;51.458;-0.110;2023-04-15T02:07:59;4.18;;;1.52;;
74614;SDS011;63121;51.458;-0.110;2023-04-15T02:10:25;6.43;;;2.22;;
74614;SDS011;63121;51.458;-0.110;2023-04-15T02:12:51;6.18;;;2.10;;
74614;SDS011;63121;51.458;-0.110;2023-04-15T02:15:16;4.53;;;1.47;;
74614;SDS011;63121;51.458;-0.110;2023-04-15T02:17:42;4.40;;;1.50;;
74614;SDS011;63121;51.458;-0.110;2023-04-15T02:20:09;7.32;;;1.80;;
74614;SDS011;63121;51.458;-0.110;2023-04-15T02:22:35;5.55;;;1.60;;
74614;SDS011;63121;51.458;-0.110;2023-04-15T02:25:01;4.78;;;1.60;;
74614;SDS011;63121;51.458;-0.110;2023-04-15T02:27:26;4.00;;;1.38;;
74614;SDS011;63121;51.458;-0.110;2023-04-15T02:29:53;3.95;;;1.30;;
74614;SDS011;63121;51.458;-0.110;2023-04-15T02:32:18;3.83;;;1.60;;
74614;SDS011;63121;51.458;-0.110;2023-04-15T02:34:44;3.47;;;1.25;;
74614;SDS011;63121;51.458;-0.110;2023-04-15T02:37:11;4.00;;;1.45;;
74614;SDS011;63121;51.458;-0.110;2023-04-15T02:42:03;3.42;;;1.40;;
74614;SDS011;63121;51.458;-0.110;2023-04-15T02:44:29;5.15;;;1.48;;
74614;SDS011;63121;51.458;-0.110;2023-04-15T02:46:56;4.70;;;1.67;;
74614;SDS011;63121;51.458;-0.110;2023-04-15T02:49:22;5.47;;;1.55;;
74614;SDS011;63121;51.458;-0.110;2023-04-15T02:51:48;3.92;;;1.45;;
74614;SDS011;63121;51.458;-0.110;2023-04-15T02:54:17;4.25;;;1.50;;
74614;SDS011;63121;51.458;-0.110;2023-04-15T02:56:43;4.03;;;1.50;;
74614;SDS011;63121;51.458;-0.110;2023-04-15T02:59:08;2.63;;;1.08;;
74614;SDS011;63121;51.458;-0.110;2023-04-15T03:01:34;4.35;;;1.60;;
74614;SDS011;63121;51.458;-0.110;2023-04-15T03:03:59;5.60;;;1.95;;
74614;SDS011;63121;51.458;-0.110;2023-04-15T03:06:25;2.55;;;1.20;;
74614;SDS011;63121;51.458;-0.110;2023-04-15T03:08:50;3.30;;;1.23;;
74614;SDS011;63121;51.458;-0.110;2023-04-15T03:11:15;4.10;;;1.40;;
74614;SDS011;63121;51.458;-0.110;2023-04-15T03:13:42;2.65;;;1.10;;
74614;SDS011;63121;51.458;-0.110;2023-04-15T03:16:08;5.10;;;1.55;;
74614;SDS011;63121;51.458;-0.110;2023-04-15T03:18:34;3.75;;;1.50;;
74614;SDS011;63121;51.458;-0.110;2023-04-15T03:20:59;3.88;;;1.60;;
74614;SDS011;63121;51.458;-0.110;2023-04-15T03:23:25;5.15;;;2.00;;
74614;SDS011;63121;51.458;-0.110;2023-04-15T03:25:50;6.22;;;2.15;;
74614;SDS011;63121;51.458;-0.110;2023-04-15T03:28:16;4.70;;;1.63;;
74614;SDS011;63121;51.458;-0.110;2023-04-15T03:30:41;6.00;;;2.10;;
74614;SDS011;63121;51.458;-0.110;2023-04-15T03:33:06;5.05;;;1.70;;
74614;SDS011;63121;51.458;-0.110;2023-04-15T03:35:33;6.97;;;1.88;;
74614;SDS011;63121;51.458;-0.110;2023-04-15T03:37:58;6.20;;;2.17;;
74614;SDS011;63121;51.458;-0.110;2023-04-15T03:40:24;6.68;;;1.98;;
74614;SDS011;63121;51.458;-0.110;2023-04-15T03:42:49;5.43;;;2.00;;
74614;SDS011;63121;51.458;-0.110;2023-04-15T03:45:15;6.10;;;2.05;;
74614;SDS011;63121;51.458;-0.110;2023-04-15T03:47:40;7.32;;;2.20;;
74614;SDS011;63121;51.458;-0.110;2023-04-15T03:50:06;5.32;;;1.90;;
74614;SDS011;63121;51.458;-0.110;2023-04-15T03:52:32;7.18;;;1.92;;
74614;SDS011;63121;51.458;-0.110;2023-04-15T03:54:57;6.38;;;2.53;;
74614;SDS011;63121;51.458;-0.110;2023-04-15T03:57:23;4.15;;;1.65;;
74614;SDS011;63121;51.458;-0.110;2023-04-15T03:59:48;7.10;;;2.33;;
74614;SDS011;63121;51.458;-0.110;2023-04-15T04:02:14;6.72;;;2.40;;
74614;SDS011;63121;51.458;-0.110;2023-04-15T04:04:39;5.70;;;2.23;;
74614;SDS011;63121;51.458;-0.110;2023-04-15T04:07:04;5.78;;;2.20;;
74614;SDS011;63121;51.458;-0.110;2023-04-15T04:09:30;5.45;;;1.90;;
74614;SDS011;63121;51.458;-0.110;2023-04-15T04:11:56;6.57;;;2.03;;
74614;SDS011;63121;51.458;-0.110;2023-04-15T04:14:21;6.85;;;2.38;;
74614;SDS011;63121;51.458;-0.110;2023-04-15T04:16:53;5.50;;;2.00;;
74614;SDS011;63121;51.458;-0.110;2023-04-15T04:19:18;5.20;;;1.90;;
74614;SDS011;63121;51.458;-0.110;2023-04-15T04:21:44;5.82;;;2.10;;
74614;SDS011;63121;51.458;-0.110;2023-04-15T04:24:09;8.38;;;2.55;;
74614;SDS011;63121;51.458;-0.110;2023-04-15T04:26:36;5.90;;;2.10;;
74614;SDS011;63121;51.458;-0.110;2023-04-15T04:29:01;5.80;;;2.00;;
74614;SDS011;63121;51.458;-0.110;2023-04-15T04:31:26;6.32;;;2.42;;
74614;SDS011;63121;51.458;-0.110;2023-04-15T04:33:52;7.22;;;2.50;;
74614;SDS011;63121;51.458;-0.110;2023-04-15T04:36:17;7.97;;;2.37;;
74614;SDS011;63121;51.458;-0.110;2023-04-15T04:38:42;5.73;;;2.10;;
74614;SDS011;63121;51.458;-0.110;2023-04-15T04:41:08;7.70;;;2.70;;
74614;SDS011;63121;51.458;-0.110;2023-04-15T04:43:33;7.40;;;2.75;;
74614;SDS011;63121;51.458;-0.110;2023-04-15T04:45:59;8.38;;;2.60;;
74614;SDS011;63121;51.458;-0.110;2023-04-15T04:48:24;6.00;;;1.80;;
74614;SDS011;63121;51.458;-0.110;2023-04-15T04:50:50;6.93;;;2.30;;
74614;SDS011;63121;51.458;-0.110;2023-04-15T04:53:16;5.90;;;2.47;;
74614;SDS011;63121;51.458;-0.110;2023-04-15T04:55:42;7.25;;;2.60;;
74614;SDS011;63121;51.458;-0.110;2023-04-15T04:58:07;5.95;;;2.20;;
74614;SDS011;63121;51.458;-0.110;2023-04-15T05:00:32;7.03;;;2.80;;
74614;SDS011;63121;51.458;-0.110;2023-04-15T05:02:58;6.32;;;2.30;;
74614;SDS011;63121;51.458;-0.110;2023-04-15T05:05:23;6.40;;;2.22;;
74614;SDS011;63121;51.458;-0.110;2023-04-15T05:07:49;6.07;;;2.35;;
74614;SDS011;63121;51.458;-0.110;2023-04-15T05:10:15;4.85;;;1.75;;
74614;SDS011;63121;51.458;-0.110;2023-04-15T05:12:42;7.47;;;2.92;;
74614;SDS011;63121;51.458;-0.110;2023-04-15T05:15:07;8.05;;;2.90;;
74614;SDS011;63121;51.458;-0.110;2023-04-15T05:17:33;6.82;;;2.60;;
74614;SDS011;63121;51.458;-0.110;2023-04-15T05:19:59;6.47;;;2.33;;
74614;SDS011;63121;51.458;-0.110;2023-04-15T05:22:25;6.75;;;2.33;;
74614;SDS011;63121;51.458;-0.110;2023-04-15T05:24:50;7.15;;;2.45;;
74614;SDS011;63121;51.458;-0.110;2023-04-15T05:27:16;7.67;;;2.93;;
74614;SDS011;63121;51.458;-0.110;2023-04-15T05:29:43;6.30;;;2.72;;
74614;SDS011;63121;51.458;-0.110;2023-04-15T05:32:08;6.85;;;2.90;;
74614;SDS011;63121;51.458;-0.110;2023-04-15T05:34:33;8.82;;;3.35;;
74614;SDS011;63121;51.458;-0.110;2023-04-15T05:36:59;7.15;;;2.65;;
74614;SDS011;63121;51.458;-0.110;2023-04-15T05:39:24;7.50;;;3.10;;
74614;SDS011;63121;51.458;-0.110;2023-04-15T05:41:50;7.63;;;2.97;;
74614;SDS011;63121;51.458;-0.110;2023-04-15T05:44:16;8.52;;;3.00;;
74614;SDS011;63121;51.458;-0.110;2023-04-15T05:46:41;7.30;;;2.75;;
74614;SDS011;63121;51.458;-0.110;2023-04-15T05:49:07;6.95;;;2.72;;
74614;SDS011;63121;51.458;-0.110;2023-04-15T05:51:32;5.38;;;2.10;;
74614;SDS011;63121;51.458;-0.110;2023-04-15T05:53:58;7.78;;;2.83;;
74614;SDS011;63121;51.458;-0.110;2023-04-15T05:56:23;7.55;;;3.08;;
74614;SDS011;63121;51.458;-0.110;2023-04-15T05:58:50;7.78;;;3.00;;
74614;SDS011;63121;51.458;-0.110;2023-04-15T06:01:16;7.88;;;2.90;;
74614;SDS011;63121;51.458;-0.110;2023-04-15T06:03:41;7.15;;;2.88;;
74614;SDS011;63121;51.458;-0.110;2023-04-15T06:06:07;6.55;;;2.35;;
74614;SDS011;63121;51.458;-0.110;2023-04-15T06:08:33;5.78;;;2.15;;
74614;SDS011;63121;51.458;-0.110;2023-04-15T06:10:59;7.03;;;2.80;;
74614;SDS011;63121;51.458;-0.110;2023-04-15T06:13:25;5.32;;;1.85;;
74614;SDS011;63121;51.458;-0.110;2023-04-15T06:15:51;4.35;;;1.70;;
74614;SDS011;63121;51.458;-0.110;2023-04-15T06:18:16;6.68;;;2.40;;
74614;SDS011;63121;51.458;-0.110;2023-04-15T06:20:41;5.33;;;2.07;;
74614;SDS011;63121;51.458;-0.110;2023-04-15T06:23:07;3.75;;;1.50;;
74614;SDS011;63121;51.458;-0.110;2023-04-15T06:25:32;6.68;;;2.30;;
74614;SDS011;63121;51.458;-0.110;2023-04-15T06:27:58;5.32;;;1.98;;
74614;SDS011;63121;51.458;-0.110;2023-04-15T06:30:23;5.25;;;2.05;;
74614;SDS011;63121;51.458;-0.110;2023-04-15T06:32:48;5.83;;;2.20;;
74614;SDS011;63121;51.458;-0.110;2023-04-15T06:35:14;7.10;;;2.10;;
74614;SDS011;63121;51.458;-0.110;2023-04-15T06:37:40;5.57;;;2.33;;
74614;SDS011;63121;51.458;-0.110;2023-04-15T06:40:05;5.97;;;2.35;;
74614;SDS011;63121;51.458;-0.110;2023-04-15T06:42:32;5.57;;;2.15;;
74614;SDS011;63121;51.458;-0.110;2023-04-15T06:44:58;6.43;;;2.10;;
74614;SDS011;63121;51.458;-0.110;2023-04-15T06:47:23;6.50;;;2.10;;
74614;SDS011;63121;51.458;-0.110;2023-04-15T06:49:49;5.00;;;2.10;;
74614;SDS011;63121;51.458;-0.110;2023-04-15T06:52:14;6.05;;;2.20;;
74614;SDS011;63121;51.458;-0.110;2023-04-15T06:54:40;5.43;;;2.25;;
74614;SDS011;63121;51.458;-0.110;2023-04-15T06:57:06;5.72;;;2.05;;
74614;SDS011;63121;51.458;-0.110;2023-04-15T06:59:33;7.13;;;2.50;;
74614;SDS011;63121;51.458;-0.110;2023-04-15T07:01:58;5.90;;;2.38;;
74614;SDS011;63121;51.458;-0.110;2023-04-15T07:04:24;6.10;;;2.38;;
74614;SDS011;63121;51.458;-0.110;2023-04-15T07:06:49;6.32;;;2.50;;
74614;SDS011;63121;51.458;-0.110;2023-04-15T07:09:15;5.07;;;2.10;;
74614;SDS011;63121;51.458;-0.110;2023-04-15T07:11:40;4.22;;;1.73;;
74614;SDS011;63121;51.458;-0.110;2023-04-15T07:14:06;6.28;;;2.30;;
74614;SDS011;63121;51.458;-0.110;2023-04-15T07:16:31;5.38;;;1.90;;
74614;SDS011;63121;51.458;-0.110;2023-04-15T07:18:56;5.82;;;2.28;;
74614;SDS011;63121;51.458;-0.110;2023-04-15T07:21:22;5.23;;;2.00;;
74614;SDS011;63121;51.458;-0.110;2023-04-15T07:23:48;6.10;;;2.40;;
74614;SDS011;63121;51.458;-0.110;2023-04-15T07:26:14;3.78;;;1.73;;
74614;SDS011;63121;51.458;-0.110;2023-04-15T07:28:39;6.00;;;2.30;;
74614;SDS011;63121;51.458;-0.110;2023-04-15T07:31:05;6.07;;;2.40;;
74614;SDS011;63121;51.458;-0.110;2023-04-15T07:33:30;4.63;;;1.63;;
74614;SDS011;63121;51.458;-0.110;2023-04-15T07:35:56;7.07;;;2.38;;
74614;SDS011;63121;51.458;-0.110;2023-04-15T07:38:22;5.45;;;2.13;;
74614;SDS011;63121;51.458;-0.110;2023-04-15T07:40:47;5.22;;;2.15;;
74614;SDS011;63121;51.458;-0.110;2023-04-15T07:43:13;5.43;;;1.92;;
74614;SDS011;63121;51.458;-0.110;2023-04-15T07:45:39;6.82;;;2.45;;
74614;SDS011;63121;51.458;-0.110;2023-04-15T07:48:04;7.43;;;2.47;;
74614;SDS011;63121;51.458;-0.110;2023-04-15T07:50:30;5.50;;;2.10;;
74614;SDS011;63121;51.458;-0.110;2023-04-15T07:52:56;8.68;;;2.65;;
74614;SDS011;63121;51.458;-0.110;2023-04-15T07:55:21;8.82;;;2.90;;
74614;SDS011;63121;51.458;-0.110;2023-04-15T07:57:48;6.85;;;2.70;;
74614;SDS011;63121;51.458;-0.110;2023-04-15T08:00:14;8.00;;;2.75;;
74614;SDS011;63121;51.458;-0.110;2023-04-15T08:02:41;7.10;;;2.50;;
74614;SDS011;63121;51.458;-0.110;2023-04-15T08:05:10;8.85;;;3.15;;
74614;SDS011;63121;51.458;-0.110;2023-04-15T08:07:37;10.27;;;3.90;;
74614;SDS011;63121;51.458;-0.110;2023-04-15T08:10:03;9.98;;;3.75;;
74614;SDS011;63121;51.458;-0.110;2023-04-15T08:12:29;7.75;;;2.90;;
74614;SDS011;63121;51.458;-0.110;2023-04-15T08:14:55;8.80;;;2.80;;
74614;SDS011;63121;51.458;-0.110;2023-04-15T08:17:21;7.20;;;2.78;;
74614;SDS011;63121;51.458;-0.110;2023-04-15T08:19:47;7.30;;;3.08;;
74614;SDS011;63121;51.458;-0.110;2023-04-15T08:22:12;8.90;;;3.20;;
74614;SDS011;63121;51.458;-0.110;2023-04-15T08:24:38;7.70;;;3.20;;
74614;SDS011;63121;51.458;-0.110;2023-04-15T08:27:04;8.05;;;3.00;;
74614;SDS011;63121;51.458;-0.110;2023-04-15T08:29:30;8.15;;;3.45;;
74614;SDS011;63121;51.458;-0.110;2023-04-15T08:31:58;9.10;;;3.55;;
74614;SDS011;63121;51.458;-0.110;2023-04-15T08:34:28;10.52;;;4.00;;
74614;SDS011;63121;51.458;-0.110;2023-04-15T08:36:53;9.05;;;3.53;;
74614;SDS011;63121;51.458;-0.110;2023-04-15T08:39:19;9.68;;;4.00;;
74614;SDS011;63121;51.458;-0.110;2023-04-15T08:41:46;8.23;;;3.60;;
74614;SDS011;63121;51.458;-0.110;2023-04-15T08:44:13;9.77;;;3.97;;
74614;SDS011;63121;51.458;-0.110;2023-04-15T08:46:38;8.48;;;3.25;;
74614;SDS011;63121;51.458;-0.110;2023-04-15T08:49:07;8.60;;;3.72;;
74614;SDS011;63121;51.458;-0.110;2023-04-15T08:51:34;7.10;;;2.63;;
74614;SDS011;63121;51.458;-0.110;2023-04-15T08:54:01;10.27;;;3.55;;
74614;SDS011;63121;51.458;-0.110;2023-04-15T08:56:27;8.55;;;3.70;;
74614;SDS011;63121;51.458;-0.110;2023-04-15T08:58:57;8.63;;;3.67;;
74614;SDS011;63121;51.458;-0.110;2023-04-15T09:01:23;8.90;;;3.22;;
74614;SDS011;63121;51.458;-0.110;2023-04-15T09:03:48;9.40;;;3.95;;
74614;SDS011;63121;51.458;-0.110;2023-04-15T09:06:17;9.40;;;3.25;;
74614;SDS011;63121;51.458;-0.110;2023-04-15T09:08:43;8.43;;;3.67;;
74614;SDS011;63121;51.458;-0.110;2023-04-15T09:11:09;8.10;;;3.60;;
74614;SDS011;63121;51.458;-0.110;2023-04-15T09:13:34;7.63;;;3.05;;
74614;SDS011;63121;51.458;-0.110;2023-04-15T09:16:03;8.77;;;3.80;;
74614;SDS011;63121;51.458;-0.110;2023-04-15T09:18:31;8.57;;;3.22;;
74614;SDS011;63121;51.458;-0.110;2023-04-15T09:21:04;9.90;;;4.30;;
74614;SDS011;63121;51.458;-0.110;2023-04-15T09:23:32;9.90;;;3.90;;
74614;SDS011;63121;51.458;-0.110;2023-04-15T09:25:58;11.15;;;4.55;;
74614;SDS011;63121;51.458;-0.110;2023-04-15T09:28:25;8.32;;;3.55;;
74614;SDS011;63121;51.458;-0.110;2023-04-15T09:30:57;11.38;;;3.83;;
74614;SDS011;63121;51.458;-0.110;2023-04-15T09:33:23;10.82;;;3.72;;
74614;SDS011;63121;51.458;-0.110;2023-04-15T09:36:00;11.13;;;4.55;;
74614;SDS011;63121;51.458;-0.110;2023-04-15T09:40:54;11.13;;;4.70;;
74614;SDS011;63121;51.458;-0.110;2023-04-15T09:43:21;10.23;;;4.50;;
74614;SDS011;63121;51.458;-0.110;2023-04-15T09:45:48;10.02;;;4.78;;
74614;SDS011;63121;51.458;-0.110;2023-04-15T09:50:41;11.02;;;3.83;;
74614;SDS011;63121;51.458;-0.110;2023-04-15T09:53:14;10.23;;;3.83;;
74614;SDS011;63121;51.458;-0.110;2023-04-15T09:55:44;10.40;;;4.07;;
74614;SDS011;63121;51.458;-0.110;2023-04-15T09:58:17;10.43;;;4.43;;
74614;SDS011;63121;51.458;-0.110;2023-04-15T10:00:52;11.10;;;4.22;;
74614;SDS011;63121;51.458;-0.110;2023-04-15T10:03:21;11.07;;;5.03;;
74614;SDS011;63121;51.458;-0.110;2023-04-15T10:05:50;8.85;;;3.65;;
74614;SDS011;63121;51.458;-0.110;2023-04-15T10:08:17;10.05;;;3.53;;
74614;SDS011;63121;51.458;-0.110;2023-04-15T10:10:45;8.70;;;3.60;;
74614;SDS011;63121;51.458;-0.110;2023-04-15T10:13:18;11.27;;;3.50;;
74614;SDS011;63121;51.458;-0.110;2023-04-15T10:15:49;8.43;;;3.85;;
74614;SDS011;63121;51.458;-0.110;2023-04-15T10:18:18;7.88;;;3.72;;
74614;SDS011;63121;51.458;-0.110;2023-04-15T10:20:46;9.60;;;3.78;;
74614;SDS011;63121;51.458;-0.110;2023-04-15T10:23:12;8.70;;;3.65;;
74614;SDS011;63121;51.458;-0.110;2023-04-15T10:25:39;9.57;;;3.58;;
74614;SDS011;63121;51.458;-0.110;2023-04-15T10:28:05;8.60;;;3.50;;
74614;SDS011;63121;51.458;-0.110;2023-04-15T10:30:32;8.10;;;3.58;;
74614;SDS011;63121;51.458;-0.110;2023-04-15T10:32:58;9.10;;;3.58;;
74614;SDS011;63121;51.458;-0.110;2023-04-15T10:35:25;10.00;;;3.92;;
74614;SDS011;63121;51.458;-0.110;2023-04-15T10:37:53;7.80;;;3.22;;
74614;SDS011;63121;51.458;-0.110;2023-04-15T10:40:28;7.63;;;3.22;;
74614;SDS011;63121;51.458;-0.110;2023-04-15T10:42:59;10.02;;;4.32;;
74614;SDS011;63121;51.458;-0.110;2023-04-15T10:45:35;7.75;;;3.53;;
74614;SDS011;63121;51.458;-0.110;2023-04-15T10:48:02;8.93;;;3.75;;
74614;SDS011;63121;51.458;-0.110;2023-04-15T10:50:30;9.98;;;4.07;;
74614;SDS011;63121;51.458;-0.110;2023-04-15T10:52:56;8.35;;;3.75;;
74614;SDS011;63121;51.458;-0.110;2023-04-15T10:55:23;8.68;;;3.53;;
74614;SDS011;63121;51.458;-0.110;2023-04-15T10:57:53;8.98;;;3.47;;
74614;SDS011;63121;51.458;-0.110;2023-04-15T11:00:26;8.20;;;3.45;;
74614;SDS011;63121;51.458;-0.110;2023-04-15T11:08:07;9.02;;;3.42;;
74614;SDS011;63121;51.458;-0.110;2023-04-15T11:13:00;7.70;;;3.00;;
74614;SDS011;63121;51.458;-0.110;2023-04-15T11:15:47;7.13;;;2.80;;
74614;SDS011;63121;51.458;-0.110;2023-04-15T11:18:14;7.03;;;3.03;;
74614;SDS011;63121;51.458;-0.110;2023-04-15T11:20:47;9.00;;;3.40;;
74614;SDS011;63121;51.458;-0.110;2023-04-15T11:23:30;9.13;;;3.72;;
74614;SDS011;63121;51.458;-0.110;2023-04-15T11:26:03;9.88;;;3.58;;
74614;SDS011;63121;51.458;-0.110;2023-04-15T11:28:33;9.85;;;3.53;;
74614;SDS011;63121;51.458;-0.110;2023-04-15T11:31:04;10.20;;;3.33;;
74614;SDS011;63121;51.458;-0.110;2023-04-15T11:33:30;7.15;;;3.13;;
74614;SDS011;63121;51.458;-0.110;2023-04-15T11:35:56;7.53;;;3.28;;
74614;SDS011;63121;51.458;-0.110;2023-04-15T11:38:21;11.13;;;3.35;;
74614;SDS011;63121;51.458;-0.110;2023-04-15T11:40:47;8.45;;;3.22;;
74614;SDS011;63121;51.458;-0.110;2023-04-15T11:45:48;9.13;;;3.78;;
74614;SDS011;63121;51.458;-0.110;2023-04-15T11:48:13;9.48;;;3.33;;
74614;SDS011;63121;51.458;-0.110;2023-04-15T11:50:39;10.57;;;3.55;;
74614;SDS011;63121;51.458;-0.110;2023-04-15T11:53:06;9.77;;;3.72;;
74614;SDS011;63121;51.458;-0.110;2023-04-15T11:55:42;9.52;;;3.20;;
74614;SDS011;63121;51.458;-0.110;2023-04-15T11:58:11;9.25;;;3.10;;
74614;SDS011;63121;51.458;-0.110;2023-04-15T12:00:40;7.47;;;2.92;;
74614;SDS011;63121;51.458;-0.110;2023-04-15T12:08:49;9.27;;;3.28;;
74614;SDS011;63121;51.458;-0.110;2023-04-15T12:13:52;10.00;;;3.40;;
74614;SDS011;63121;51.458;-0.110;2023-04-15T12:16:19;10.15;;;3.17;;
74614;SDS011;63121;51.458;-0.110;2023-04-15T12:18:45;7.55;;;2.80;;
74614;SDS011;63121;51.458;-0.110;2023-04-15T12:23:38;7.63;;;3.13;;
74614;SDS011;63121;51.458;-0.110;2023-04-15T12:26:11;9.73;;;3.55;;
74614;SDS011;63121;51.458;-0.110;2023-04-15T12:28:37;7.90;;;2.97;;
74614;SDS011;63121;51.458;-0.110;2023-04-15T12:31:06;10.10;;;3.15;;
74614;SDS011;63121;51.458;-0.110;2023-04-15T12:33:35;8.23;;;3.10;;
74614;SDS011;63121;51.458;-0.110;2023-04-15T12:36:01;10.25;;;3.00;;
74614;SDS011;63121;51.458;-0.110;2023-04-15T12:38:27;8.07;;;2.90;;
74614;SDS011;63121;51.458;-0.110;2023-04-15T12:40:53;8.25;;;3.20;;
74614;SDS011;63121;51.458;-0.110;2023-04-15T12:43:19;8.60;;;2.90;;
74614;SDS011;63121;51.458;-0.110;2023-04-15T12:45:44;9.27;;;3.08;;
74614;SDS011;63121;51.458;-0.110;2023-04-15T12:48:09;8.53;;;3.13;;
74614;SDS011;63121;51.458;-0.110;2023-04-15T12:50:35;7.03;;;2.87;;
74614;SDS011;63121;51.458;-0.110;2023-04-15T12:53:01;10.30;;;2.90;;
74614;SDS011;63121;51.458;-0.110;2023-04-15T12:55:27;7.45;;;2.60;;
74614;SDS011;63121;51.458;-0.110;2023-04-15T12:57:53;8.57;;;2.95;;
74614;SDS011;63121;51.458;-0.110;2023-04-15T13:00:18;10.95;;;3.45;;
74614;SDS011;63121;51.458;-0.110;2023-04-15T13:02:43;12.20;;;4.00;;
74614;SDS011;63121;51.458;-0.110;2023-04-15T13:05:09;6.50;;;2.50;;
74614;SDS011;63121;51.458;-0.110;2023-04-15T13:07:34;7.25;;;2.90;;
74614;SDS011;63121;51.458;-0.110;2023-04-15T13:09:59;8.93;;;2.80;;
74614;SDS011;63121;51.458;-0.110;2023-04-15T13:12:25;6.63;;;2.45;;
74614;SDS011;63121;51.458;-0.110;2023-04-15T13:14:51;8.10;;;2.30;;
74614;SDS011;63121;51.458;-0.110;2023-04-15T13:17:17;7.85;;;2.60;;
74614;SDS011;63121;51.458;-0.110;2023-04-15T13:19:44;7.75;;;2.13;;
74614;SDS011;63121;51.458;-0.110;2023-04-15T13:22:10;8.15;;;2.75;;
74614;SDS011;63121;51.458;-0.110;2023-04-15T13:24:36;8.55;;;2.47;;
74614;SDS011;63121;51.458;-0.110;2023-04-15T13:27:03;9.43;;;2.58;;
74614;SDS011;63121;51.458;-0.110;2023-04-15T13:29:28;9.80;;;2.63;;
74614;SDS011;63121;51.458;-0.110;2023-04-15T13:31:54;9.00;;;2.40;;
74614;SDS011;63121;51.458;-0.110;2023-04-15T13:34:20;8.90;;;2.67;;
74614;SDS011;63121;51.458;-0.110;2023-04-15T13:36:45;8.50;;;2.50;;
74614;SDS011;63121;51.458;-0.110;2023-04-15T13:39:11;6.72;;;2.45;;
74614;SDS011;63121;51.458;-0.110;2023-04-15T13:41:36;7.23;;;2.30;;
74614;SDS011;63121;51.458;-0.110;2023-04-15T13:44:02;8.65;;;2.50;;
74614;SDS011;63121;51.458;-0.110;2023-04-15T13:46:27;7.47;;;2.60;;
74614;SDS011;63121;51.458;-0.110;2023-04-15T13:48:52;6.82;;;2.25;;
74614;SDS011;63121;51.458;-0.110;2023-04-15T13:51:18;7.55;;;2.20;;
74614;SDS011;63121;51.458;-0.110;2023-04-15T13:53:43;7.97;;;2.57;;
74614;SDS011;63121;51.458;-0.110;2023-04-15T13:56:09;8.93;;;2.60;;
74614;SDS011;63121;51.458;-0.110;2023-04-15T13:58:35;9.15;;;2.45;;
74614;SDS011;63121;51.458;-0.110;2023-04-15T14:01:01;8.02;;;2.33;;
74614;SDS011;63121;51.458;-0.110;2023-04-15T14:03:27;9.70;;;2.75;;
74614;SDS011;63121;51.458;-0.110;2023-04-15T14:05:52;6.70;;;2.03;;
74614;SDS011;63121;51.458;-0.110;2023-04-15T14:08:20;7.90;;;2.10;;
74614;SDS011;63121;51.458;-0.110;2023-04-15T14:10:46;8.13;;;2.38;;
74614;SDS011;63121;51.458;-0.110;2023-04-15T14:13:13;7.28;;;1.95;;
74614;SDS011;63121;51.458;-0.110;2023-04-15T14:15:39;7.68;;;2.10;;
74614;SDS011;63121;51.458;-0.110;2023-04-15T14:18:05;9.55;;;2.42;;
74614;SDS011;63121;51.458;-0.110;2023-04-15T14:20:31;8.00;;;2.35;;
74614;SDS011;63121;51.458;-0.110;2023-04-15T14:22:56;6.85;;;2.30;;
74614;SDS011;63121;51.458;-0.110;2023-04-15T14:25:22;5.95;;;2.38;;
74614;SDS011;63121;51.458;-0.110;2023-04-15T14:27:47;8.07;;;2.22;;
74614;SDS011;63121;51.458;-0.110;2023-04-15T14:30:13;8.73;;;2.70;;
74614;SDS011;63121;51.458;-0.110;2023-04-15T14:32:38;8.25;;;2.45;;
74614;SDS011;63121;51.458;-0.110;2023-04-15T14:35:04;6.97;;;2.50;;
74614;SDS011;63121;51.458;-0.110;2023-04-15T14:37:30;9.15;;;2.55;;
74614;SDS011;63121;51.458;-0.110;2023-04-15T14:39:56;8.57;;;2.10;;
74614;SDS011;63121;51.458;-0.110;2023-04-15T14:42:21;8.65;;;2.55;;
74614;SDS011;63121;51.458;-0.110;2023-04-15T14:44:47;6.83;;;1.90;;
74614;SDS011;63121;51.458;-0.110;2023-04-15T14:47:12;7.50;;;2.20;;
74614;SDS011;63121;51.458;-0.110;2023-04-15T14:49:38;8.18;;;2.25;;
74614;SDS011;63121;51.458;-0.110;2023-04-15T14:52:03;5.85;;;2.30;;
74614;SDS011;63121;51.458;-0.110;2023-04-15T14:54:28;9.93;;;2.50;;
74614;SDS011;63121;51.458;-0.110;2023-04-15T14:56:54;6.05;;;2.20;;
74614;SDS011;63121;51.458;-0.110;2023-04-15T14:59:20;6.78;;;2.47;;